Time;durP1;ratioP1;P1;durP2;ratioP2;P2;SDS_P1;SDS_P2;PMS_P1;PMS_P2;Temp;Humidity;BMP_temperature;BMP_pressure;BME280_temperature;BME280_humidity;BME280_pressure;Samples;Min_cycle;Max_cycle;Signal;HPM_P1;HPM_P2
2023/12/01 00:00:46;;;;;;;446.43;176.67;;;;;;;;;;4980237;28;20256;-55
2023/12/01 00:03:12;;;;;;;402.47;156.53;;;;;;;;;;4986193;28;20273;-55
2023/12/01 00:05:39;;;;;;;405.37;156.50;;;;;;;;;;4990127;28;20683;-54
2023/12/01 00:08:05;;;;;;;439.10;175.60;;;;;;;;;;4982821;28;20202;-54
2023/12/01 00:10:31;;;;;;;444.10;175.40;;;;;;;;;;4985887;28;21628;-55
2023/12/01 00:12:57;;;;;;;433.13;169.07;;;;;;;;;;4983002;28;20209;-55
2023/12/01 00:15:23;;;;;;;430.80;164.57;;;;;;;;;;4986926;28;20359;-55
2023/12/01 00:17:49;;;;;;;441.87;169.03;;;;;;;;;;4988969;28;20224;-54
2023/12/01 00:20:14;;;;;;;457.13;181.50;;;;;;;;;;4985480;28;20251;-55
2023/12/01 00:22:40;;;;;;;434.73;169.27;;;;;;;;;;4982626;28;20256;-56
2023/12/01 00:25:07;;;;;;;409.63;157.80;;;;;;;;;;4989743;28;20268;-55
2023/12/01 00:27:32;;;;;;;461.87;183.80;;;;;;;;;;4985084;28;20553;-55
2023/12/01 00:29:58;;;;;;;443.83;181.63;;;;;;;;;;4986607;28;20236;-56
2023/12/01 00:32:24;;;;;;;434.97;166.60;;;;;;;;;;4984372;28;20694;-56
2023/12/01 00:34:50;;;;;;;422.03;160.90;;;;;;;;;;4988005;28;20213;-54
2023/12/01 00:37:16;;;;;;;426.40;165.23;;;;;;;;;;4981726;28;20220;-56
2023/12/01 00:39:42;;;;;;;422.47;166.97;;;;;;;;;;4987444;28;20222;-55
2023/12/01 00:42:09;;;;;;;440.13;176.80;;;;;;;;;;4978742;28;20472;-55
2023/12/01 00:44:35;;;;;;;413.10;161.10;;;;;;;;;;4980141;28;20196;-55
2023/12/01 00:47:01;;;;;;;406.20;156.27;;;;;;;;;;4986302;28;20205;-55
2023/12/01 00:49:27;;;;;;;418.47;157.53;;;;;;;;;;4978501;28;20224;-53
2023/12/01 00:51:53;;;;;;;463.50;181.37;;;;;;;;;;4967695;28;20499;-54
2023/12/01 00:54:19;;;;;;;396.37;152.90;;;;;;;;;;4967699;28;20217;-53
2023/12/01 00:56:45;;;;;;;433.37;168.97;;;;;;;;;;4965860;28;20194;-53
2023/12/01 00:59:11;;;;;;;476.67;190.13;;;;;;;;;;4963836;28;20645;-53
2023/12/01 01:01:37;;;;;;;409.67;155.30;;;;;;;;;;4967376;28;20225;-53
2023/12/01 01:04:03;;;;;;;418.37;161.43;;;;;;;;;;4973063;28;20213;-55
2023/12/01 01:06:29;;;;;;;430.53;166.83;;;;;;;;;;4969141;28;20748;-52
2023/12/01 01:08:55;;;;;;;407.20;153.10;;;;;;;;;;4970468;28;20295;-54
2023/12/01 01:11:21;;;;;;;485.60;196.17;;;;;;;;;;4966188;28;20719;-52
2023/12/01 01:13:47;;;;;;;460.80;182.10;;;;;;;;;;4965774;28;20272;-54
2023/12/01 01:16:13;;;;;;;479.07;196.40;;;;;;;;;;4964324;28;20653;-55
2023/12/01 01:18:39;;;;;;;396.43;151.73;;;;;;;;;;4970838;28;20815;-54
2023/12/01 01:21:05;;;;;;;434.27;164.57;;;;;;;;;;4969220;28;20320;-53
2023/12/01 01:23:31;;;;;;;441.27;178.00;;;;;;;;;;4964346;28;20581;-54
2023/12/01 01:25:57;;;;;;;437.80;165.50;;;;;;;;;;4973449;28;21482;-53
2023/12/01 01:28:22;;;;;;;434.47;163.40;;;;;;;;;;4966427;28;21027;-53
2023/12/01 01:30:48;;;;;;;442.20;170.00;;;;;;;;;;4971086;28;20307;-54
2023/12/01 01:33:14;;;;;;;431.07;165.57;;;;;;;;;;4969115;28;20225;-54
2023/12/01 01:35:40;;;;;;;432.33;168.27;;;;;;;;;;4971641;28;20209;-54
2023/12/01 01:38:07;;;;;;;443.47;171.13;;;;;;;;;;4960345;28;20331;-54
2023/12/01 01:40:33;;;;;;;403.23;153.63;;;;;;;;;;4973401;28;20252;-52
2023/12/01 01:42:59;;;;;;;391.17;151.47;;;;;;;;;;4959249;28;20249;-53
2023/12/01 01:45:25;;;;;;;419.27;162.23;;;;;;;;;;4954624;28;20708;-53
2023/12/01 01:47:52;;;;;;;475.23;191.87;;;;;;;;;;4966826;28;20313;-53
2023/12/01 01:50:22;;;;;;;395.90;156.20;;;;;;;;;;4969811;28;20271;-52
2023/12/01 01:52:48;;;;;;;388.13;155.17;;;;;;;;;;4971710;28;20803;-52
2023/12/01 01:55:14;;;;;;;429.50;175.00;;;;;;;;;;4962787;28;20316;-54
2023/12/01 01:57:44;;;;;;;464.07;193.47;;;;;;;;;;4970265;28;20354;-53
2023/12/01 02:00:12;;;;;;;462.40;190.73;;;;;;;;;;4962730;28;20247;-53
2023/12/01 02:02:41;;;;;;;400.87;153.53;;;;;;;;;;4967744;28;20186;-52
2023/12/01 02:05:13;;;;;;;390.73;148.73;;;;;;;;;;4972993;28;20191;-53
2023/12/01 02:07:38;;;;;;;399.23;153.53;;;;;;;;;;4965511;28;20327;-53
2023/12/01 02:10:05;;;;;;;438.63;174.13;;;;;;;;;;4969501;28;20249;-56
2023/12/01 02:12:31;;;;;;;490.73;198.13;;;;;;;;;;4969961;28;20261;-52
2023/12/01 02:14:57;;;;;;;424.80;165.87;;;;;;;;;;4968255;28;20292;-53
2023/12/01 02:17:23;;;;;;;479.27;190.63;;;;;;;;;;4971793;28;20198;-54
2023/12/01 02:19:51;;;;;;;411.37;166.47;;;;;;;;;;4965705;28;20638;-53
2023/12/01 02:22:17;;;;;;;442.83;174.40;;;;;;;;;;4962774;28;20640;-53
2023/12/01 02:24:43;;;;;;;408.43;158.43;;;;;;;;;;4975718;28;20878;-52
2023/12/01 02:27:09;;;;;;;442.87;179.63;;;;;;;;;;4971037;28;20229;-53
2023/12/01 02:29:35;;;;;;;431.27;169.37;;;;;;;;;;4959488;28;20759;-52
2023/12/01 02:32:01;;;;;;;389.27;151.80;;;;;;;;;;4973483;28;21129;-53
2023/12/01 02:34:27;;;;;;;382.93;153.23;;;;;;;;;;4971853;28;20688;-54
2023/12/01 02:36:53;;;;;;;410.93;166.60;;;;;;;;;;4970044;28;20221;-54
2023/12/01 02:39:20;;;;;;;412.93;163.53;;;;;;;;;;4968942;28;20576;-55
2023/12/01 02:41:46;;;;;;;432.43;172.70;;;;;;;;;;4979960;28;20201;-54
2023/12/01 02:44:12;;;;;;;428.37;168.03;;;;;;;;;;4968665;28;20661;-54
2023/12/01 02:46:37;;;;;;;393.53;152.77;;;;;;;;;;4970693;28;20213;-53
2023/12/01 02:49:03;;;;;;;422.07;173.70;;;;;;;;;;4963763;28;20638;-54
2023/12/01 02:51:29;;;;;;;397.53;156.67;;;;;;;;;;4967807;28;20917;-54
2023/12/01 02:53:55;;;;;;;398.93;155.87;;;;;;;;;;4972499;28;20742;-54
2023/12/01 02:56:21;;;;;;;414.53;163.17;;;;;;;;;;4973860;28;20177;-55
2023/12/01 02:58:47;;;;;;;438.13;176.07;;;;;;;;;;4967326;28;20217;-54
2023/12/01 03:01:13;;;;;;;424.67;173.30;;;;;;;;;;4961578;28;20217;-56
2023/12/01 03:03:40;;;;;;;381.53;182.93;;;;;;;;;;4971990;28;20429;-55
2023/12/01 03:06:06;;;;;;;372.97;144.37;;;;;;;;;;4953400;28;20209;-54
2023/12/01 03:08:32;;;;;;;401.47;156.50;;;;;;;;;;4971837;28;20209;-54
2023/12/01 03:10:58;;;;;;;395.57;159.50;;;;;;;;;;4966657;28;20716;-54
2023/12/01 03:13:24;;;;;;;458.77;186.90;;;;;;;;;;4964126;28;20340;-53
2023/12/01 03:15:50;;;;;;;456.40;188.87;;;;;;;;;;4965284;28;20312;-54
2023/12/01 03:18:16;;;;;;;386.00;155.63;;;;;;;;;;4970787;28;20714;-53
2023/12/01 03:20:42;;;;;;;378.90;163.07;;;;;;;;;;4964625;28;20300;-53
2023/12/01 03:23:08;;;;;;;444.83;183.43;;;;;;;;;;4970291;28;20272;-53
2023/12/01 03:25:34;;;;;;;407.20;159.87;;;;;;;;;;4972881;28;20573;-54
2023/12/01 03:28:00;;;;;;;427.13;167.87;;;;;;;;;;4959745;28;20229;-55
2023/12/01 03:30:26;;;;;;;411.57;161.70;;;;;;;;;;4960385;28;20235;-55
2023/12/01 03:32:54;;;;;;;459.20;188.80;;;;;;;;;;4969689;28;20246;-54
2023/12/01 03:35:20;;;;;;;398.50;158.93;;;;;;;;;;4971806;28;20200;-53
2023/12/01 03:37:47;;;;;;;421.80;169.53;;;;;;;;;;4966829;28;20583;-54
2023/12/01 03:40:13;;;;;;;418.30;178.57;;;;;;;;;;4969955;28;20312;-54
2023/12/01 03:42:42;;;;;;;488.13;258.23;;;;;;;;;;4971757;28;20312;-54
2023/12/01 03:45:10;;;;;;;381.37;154.47;;;;;;;;;;4965379;28;20312;-54
2023/12/01 03:47:37;;;;;;;387.90;153.53;;;;;;;;;;4971747;28;20214;-53
2023/12/01 03:50:03;;;;;;;374.07;221.37;;;;;;;;;;4967664;28;20288;-55
2023/12/01 03:52:30;;;;;;;427.00;167.83;;;;;;;;;;4968853;28;20214;-54
2023/12/01 03:54:56;;;;;;;436.63;168.07;;;;;;;;;;4966212;28;20665;-54
2023/12/01 03:57:21;;;;;;;447.23;173.63;;;;;;;;;;4971092;28;20217;-55
2023/12/01 03:59:47;;;;;;;441.50;170.47;;;;;;;;;;4964398;28;20364;-54
2023/12/01 04:02:13;;;;;;;435.07;170.97;;;;;;;;;;4964146;28;20213;-54
2023/12/01 04:04:39;;;;;;;462.80;188.43;;;;;;;;;;4968358;28;20723;-53
2023/12/01 04:07:07;;;;;;;440.13;178.77;;;;;;;;;;4964372;28;20240;-54
2023/12/01 04:09:33;;;;;;;408.20;156.83;;;;;;;;;;4973566;28;20237;-55
2023/12/01 04:11:59;;;;;;;395.23;156.73;;;;;;;;;;4968723;28;20596;-55
2023/12/01 04:14:25;;;;;;;451.07;189.67;;;;;;;;;;4961223;28;20186;-55
2023/12/01 04:16:51;;;;;;;403.73;158.87;;;;;;;;;;4969243;28;20218;-55
2023/12/01 04:19:17;;;;;;;403.70;180.63;;;;;;;;;;4962456;28;20226;-54
2023/12/01 04:21:43;;;;;;;451.70;173.87;;;;;;;;;;4965662;28;20233;-54
2023/12/01 04:24:09;;;;;;;422.97;167.27;;;;;;;;;;4970775;28;20223;-54
2023/12/01 04:26:35;;;;;;;449.30;177.73;;;;;;;;;;4974239;28;20573;-54
2023/12/01 04:29:01;;;;;;;489.23;196.77;;;;;;;;;;4962359;28;20225;-53
2023/12/01 04:31:27;;;;;;;415.37;161.80;;;;;;;;;;4972155;28;20653;-54
2023/12/01 04:33:53;;;;;;;391.93;152.53;;;;;;;;;;4975349;28;20213;-54
2023/12/01 04:36:19;;;;;;;398.20;155.00;;;;;;;;;;4972253;28;20737;-53
2023/12/01 04:38:45;;;;;;;387.00;150.43;;;;;;;;;;4971395;28;20201;-53
2023/12/01 04:41:11;;;;;;;360.90;142.10;;;;;;;;;;4977935;28;20495;-55
2023/12/01 04:43:40;;;;;;;394.07;157.60;;;;;;;;;;4982297;28;20217;-53
2023/12/01 04:46:07;;;;;;;389.93;158.13;;;;;;;;;;4972890;28;20280;-54
2023/12/01 04:48:32;;;;;;;362.83;146.23;;;;;;;;;;4976348;28;20731;-55
2023/12/01 04:50:59;;;;;;;402.40;156.17;;;;;;;;;;4973046;28;20220;-53
2023/12/01 04:53:24;;;;;;;406.93;161.20;;;;;;;;;;4971781;28;20548;-54
2023/12/01 04:55:50;;;;;;;407.93;175.43;;;;;;;;;;4969995;28;20217;-55
2023/12/01 04:58:17;;;;;;;442.23;194.60;;;;;;;;;;4967300;28;20224;-53
2023/12/01 05:00:43;;;;;;;422.83;159.23;;;;;;;;;;4966682;28;20272;-53
2023/12/01 05:03:09;;;;;;;406.90;161.40;;;;;;;;;;4968260;28;20308;-53
2023/12/01 05:05:36;;;;;;;388.40;153.17;;;;;;;;;;4975205;28;20185;-53
2023/12/01 05:08:04;;;;;;;476.17;195.07;;;;;;;;;;4965887;28;20202;-53
2023/12/01 05:10:32;;;;;;;420.27;163.47;;;;;;;;;;4973045;28;21349;-53
2023/12/01 05:12:59;;;;;;;380.60;149.47;;;;;;;;;;4966432;28;20635;-54
2023/12/01 05:15:26;;;;;;;439.83;171.60;;;;;;;;;;4967142;28;20264;-54
2023/12/01 05:17:54;;;;;;;425.70;170.37;;;;;;;;;;4972914;28;20209;-54
2023/12/01 05:20:22;;;;;;;406.57;161.10;;;;;;;;;;4962631;28;20202;-55
2023/12/01 05:22:50;;;;;;;371.77;146.60;;;;;;;;;;4970250;28;20225;-52
2023/12/01 05:25:17;;;;;;;382.80;152.20;;;;;;;;;;4968971;28;20225;-53
2023/12/01 05:27:47;;;;;;;420.40;171.83;;;;;;;;;;4966254;28;20599;-54
2023/12/01 05:30:14;;;;;;;453.30;188.80;;;;;;;;;;4968989;28;20218;-54
2023/12/01 05:32:40;;;;;;;361.30;145.90;;;;;;;;;;4990858;23;20548;-46
2023/12/01 05:35:10;;;;;;;335.33;131.17;;;;;;;;;;5027752;28;20696;-47
2023/12/01 05:37:36;;;;;;;365.63;143.83;;;;;;;;;;5027478;28;20216;-48
2023/12/01 05:40:03;;;;;;;321.73;126.77;;;;;;;;;;5027425;28;20224;-48
2023/12/01 05:42:29;;;;;;;333.47;134.30;;;;;;;;;;5027668;28;20228;-48
2023/12/01 05:44:55;;;;;;;323.57;132.57;;;;;;;;;;5027676;28;20192;-47
2023/12/01 05:47:22;;;;;;;344.23;138.07;;;;;;;;;;5027976;28;20351;-48
2023/12/01 05:49:49;;;;;;;338.23;135.33;;;;;;;;;;5018768;28;20221;-48
2023/12/01 05:52:15;;;;;;;331.17;134.50;;;;;;;;;;5008001;28;20224;-48
2023/12/01 05:54:41;;;;;;;337.90;138.33;;;;;;;;;;5027244;28;20541;-48
2023/12/01 05:57:07;;;;;;;331.30;139.40;;;;;;;;;;5027612;28;20219;-48
2023/12/01 05:59:34;;;;;;;351.20;143.83;;;;;;;;;;5027467;28;20551;-48
2023/12/01 06:02:03;;;;;;;327.60;133.10;;;;;;;;;;5026808;28;20417;-48
2023/12/01 06:04:29;;;;;;;345.37;137.33;;;;;;;;;;5027153;28;20650;-48
2023/12/01 06:06:55;;;;;;;331.60;135.90;;;;;;;;;;5027472;28;20303;-49
2023/12/01 06:09:21;;;;;;;337.23;135.60;;;;;;;;;;5026841;28;20212;-49
2023/12/01 06:11:47;;;;;;;341.33;155.30;;;;;;;;;;5026827;28;20573;-49
2023/12/01 06:14:13;;;;;;;348.27;136.80;;;;;;;;;;5013291;28;20205;-49
2023/12/01 06:16:39;;;;;;;347.67;137.97;;;;;;;;;;5019281;28;20220;-49
2023/12/01 06:19:05;;;;;;;364.23;142.97;;;;;;;;;;5026847;28;20220;-49
2023/12/01 06:21:31;;;;;;;323.50;129.77;;;;;;;;;;5020155;28;20762;-49
2023/12/01 06:23:56;;;;;;;352.73;140.23;;;;;;;;;;5021820;28;20306;-49
2023/12/01 06:26:22;;;;;;;340.07;131.33;;;;;;;;;;5026152;28;20177;-49
2023/12/01 06:28:48;;;;;;;352.40;137.83;;;;;;;;;;5014941;28;20234;-49
2023/12/01 06:31:14;;;;;;;344.50;138.10;;;;;;;;;;5022227;28;20212;-49
2023/12/01 06:33:41;;;;;;;351.73;138.53;;;;;;;;;;5014354;28;20216;-47
2023/12/01 06:36:07;;;;;;;327.27;130.87;;;;;;;;;;5010776;28;20609;-48
2023/12/01 06:38:33;;;;;;;297.57;122.70;;;;;;;;;;5024157;28;20195;-50
2023/12/01 06:40:59;;;;;;;317.50;130.17;;;;;;;;;;5021298;28;20310;-47
2023/12/01 06:43:25;;;;;;;332.60;133.27;;;;;;;;;;5010295;28;20619;-50
2023/12/01 06:45:51;;;;;;;334.27;133.70;;;;;;;;;;5006705;28;20307;-50
2023/12/01 06:48:17;;;;;;;349.43;138.70;;;;;;;;;;5005803;28;20252;-50
2023/12/01 06:50:43;;;;;;;331.37;133.83;;;;;;;;;;5006510;28;20200;-47
2023/12/01 06:53:10;;;;;;;320.20;130.40;;;;;;;;;;5015586;28;20539;-47
2023/12/01 06:55:36;;;;;;;297.57;123.87;;;;;;;;;;5017953;28;20240;-47
2023/12/01 06:58:02;;;;;;;304.83;124.07;;;;;;;;;;5017711;28;20709;-49
2023/12/01 07:02:56;;;;;;;331.67;132.47;;;;;;;;;;5022005;28;20219;-47
2023/12/01 07:05:22;;;;;;;330.67;131.90;;;;;;;;;;5015712;28;20667;-47
2023/12/01 07:07:48;;;;;;;326.00;133.77;;;;;;;;;;5020816;28;20251;-48
2023/12/01 07:10:14;;;;;;;313.60;129.23;;;;;;;;;;5020200;28;20208;-47
2023/12/01 07:12:40;;;;;;;343.17;141.30;;;;;;;;;;5018719;28;20574;-47
2023/12/01 07:15:11;;;;;;;334.33;135.87;;;;;;;;;;5016237;28;20228;-47
2023/12/01 07:17:38;;;;;;;325.30;138.93;;;;;;;;;;5014121;28;20280;-47
2023/12/01 07:20:12;;;;;;;340.07;134.97;;;;;;;;;;5019181;28;20575;-49
2023/12/01 07:22:38;;;;;;;347.13;133.73;;;;;;;;;;5016932;28;20216;-47
2023/12/01 07:25:10;;;;;;;339.10;137.93;;;;;;;;;;5015206;28;20410;-49
2023/12/01 07:27:36;;;;;;;351.50;139.00;;;;;;;;;;5017644;28;20730;-50
2023/12/01 07:30:02;;;;;;;355.87;140.03;;;;;;;;;;5022322;28;20225;-50
2023/12/01 07:32:28;;;;;;;359.97;144.03;;;;;;;;;;5017010;28;20299;-49
2023/12/01 07:34:54;;;;;;;340.47;134.20;;;;;;;;;;5019387;28;20212;-50
2023/12/01 07:37:20;;;;;;;340.03;137.27;;;;;;;;;;5021947;28;20712;-48
2023/12/01 07:39:46;;;;;;;346.60;137.53;;;;;;;;;;5021488;28;20236;-48
2023/12/01 07:42:12;;;;;;;369.73;200.50;;;;;;;;;;5013759;28;20222;-48
2023/12/01 07:44:38;;;;;;;375.00;142.73;;;;;;;;;;5021263;28;20616;-48
2023/12/01 07:47:07;;;;;;;383.20;149.53;;;;;;;;;;5016668;28;20212;-48
2023/12/01 07:49:33;;;;;;;376.47;144.13;;;;;;;;;;5007753;28;20228;-48
2023/12/01 07:51:59;;;;;;;356.80;135.07;;;;;;;;;;5021056;28;20678;-48
2023/12/01 07:54:26;;;;;;;379.23;143.60;;;;;;;;;;5014883;28;20216;-48
2023/12/01 07:56:52;;;;;;;360.43;136.97;;;;;;;;;;5015669;28;20203;-48
2023/12/01 07:59:18;;;;;;;374.10;142.63;;;;;;;;;;5022097;28;20172;-48
2023/12/01 08:01:44;;;;;;;375.83;142.53;;;;;;;;;;5018655;28;20208;-48
2023/12/01 08:04:10;;;;;;;368.23;140.03;;;;;;;;;;5028228;28;20204;-48
2023/12/01 08:06:36;;;;;;;375.37;142.60;;;;;;;;;;5025963;28;20227;-48
2023/12/01 08:09:02;;;;;;;342.27;135.33;;;;;;;;;;5025576;28;20235;-48
2023/12/01 08:11:30;;;;;;;365.93;141.67;;;;;;;;;;5015441;28;20674;-48
2023/12/01 08:13:56;;;;;;;360.10;137.83;;;;;;;;;;5021098;28;20267;-49
2023/12/01 08:16:22;;;;;;;377.47;142.10;;;;;;;;;;5027646;28;20235;-48
2023/12/01 08:18:48;;;;;;;379.00;140.97;;;;;;;;;;5017435;28;20244;-48
2023/12/01 08:21:14;;;;;;;367.83;138.47;;;;;;;;;;5015054;28;20228;-48
2023/12/01 08:23:40;;;;;;;361.73;135.83;;;;;;;;;;5021374;28;20176;-48
2023/12/01 08:26:09;;;;;;;389.57;147.67;;;;;;;;;;5026244;28;20578;-48
2023/12/01 08:28:35;;;;;;;378.20;142.00;;;;;;;;;;5024416;28;20298;-48
2023/12/01 08:31:02;;;;;;;376.23;141.53;;;;;;;;;;5024128;28;20216;-48
2023/12/01 08:33:28;;;;;;;367.83;136.03;;;;;;;;;;5026581;28;20258;-48
2023/12/01 08:35:54;;;;;;;375.97;139.30;;;;;;;;;;5022429;28;20200;-48
2023/12/01 08:38:20;;;;;;;379.93;141.33;;;;;;;;;;5019111;28;20187;-48
2023/12/01 08:40:46;;;;;;;382.30;138.23;;;;;;;;;;5018850;28;20247;-48
2023/12/01 08:43:12;;;;;;;387.60;142.57;;;;;;;;;;5020022;28;20216;-48
2023/12/01 08:45:38;;;;;;;386.83;143.23;;;;;;;;;;5022578;28;20212;-48
2023/12/01 08:48:04;;;;;;;383.87;142.20;;;;;;;;;;5019774;28;20228;-48
2023/12/01 08:50:30;;;;;;;371.60;141.50;;;;;;;;;;5014112;28;20201;-48
2023/12/01 08:52:56;;;;;;;379.73;143.93;;;;;;;;;;5015171;28;20219;-49
2023/12/01 08:55:22;;;;;;;371.10;139.90;;;;;;;;;;5019724;28;20311;-49
2023/12/01 08:57:48;;;;;;;360.00;134.03;;;;;;;;;;5017167;28;20221;-49
2023/12/01 09:00:20;;;;;;;379.13;142.63;;;;;;;;;;5017393;28;20318;-49
2023/12/01 09:02:46;;;;;;;391.27;144.57;;;;;;;;;;5022741;28;20642;-50
2023/12/01 09:05:12;;;;;;;390.93;150.80;;;;;;;;;;5021062;28;20169;-50
2023/12/01 09:07:38;;;;;;;388.10;141.23;;;;;;;;;;5023584;28;20226;-49
2023/12/01 09:10:04;;;;;;;380.10;142.33;;;;;;;;;;5014589;28;20663;-49
2023/12/01 09:12:30;;;;;;;381.57;141.07;;;;;;;;;;5014763;28;20212;-49
2023/12/01 09:14:57;;;;;;;380.77;141.23;;;;;;;;;;5022981;28;20219;-49
2023/12/01 09:17:23;;;;;;;389.50;144.63;;;;;;;;;;5020026;28;20185;-49
2023/12/01 09:19:48;;;;;;;387.33;144.90;;;;;;;;;;5019846;28;20729;-50
2023/12/01 09:22:14;;;;;;;383.67;143.40;;;;;;;;;;5016892;28;20212;-50
2023/12/01 09:24:40;;;;;;;365.70;134.33;;;;;;;;;;5027172;28;20226;-49
2023/12/01 09:27:06;;;;;;;386.63;144.30;;;;;;;;;;5016845;28;20582;-50
2023/12/01 09:29:32;;;;;;;386.57;145.63;;;;;;;;;;5020092;28;20640;-50
2023/12/01 09:31:58;;;;;;;385.37;145.80;;;;;;;;;;5020317;28;20736;-49
2023/12/01 09:34:24;;;;;;;377.93;144.67;;;;;;;;;;5018210;28;20572;-48
2023/12/01 09:36:50;;;;;;;387.07;148.13;;;;;;;;;;5021163;28;20212;-48
2023/12/01 09:39:16;;;;;;;392.30;144.17;;;;;;;;;;5020423;28;20266;-48
2023/12/01 09:41:43;;;;;;;386.97;143.77;;;;;;;;;;5027309;28;20554;-48
2023/12/01 09:44:09;;;;;;;382.83;140.70;;;;;;;;;;5017340;28;20185;-48
2023/12/01 09:46:36;;;;;;;370.93;134.83;;;;;;;;;;5022552;28;20637;-47
2023/12/01 09:49:05;;;;;;;389.07;144.33;;;;;;;;;;5017446;28;20229;-47
2023/12/01 09:51:34;;;;;;;393.07;143.60;;;;;;;;;;5019844;28;20266;-50
2023/12/01 09:54:02;;;;;;;388.43;140.53;;;;;;;;;;5014331;28;20213;-50
2023/12/01 09:56:28;;;;;;;394.03;143.83;;;;;;;;;;5024187;28;20263;-49
2023/12/01 09:58:55;;;;;;;393.60;141.13;;;;;;;;;;5026555;28;20323;-48
2023/12/01 10:01:21;;;;;;;397.90;142.27;;;;;;;;;;5024252;28;20212;-48
2023/12/01 10:03:47;;;;;;;389.20;143.57;;;;;;;;;;5023644;28;20243;-48
2023/12/01 10:06:13;;;;;;;404.73;148.07;;;;;;;;;;5015434;28;20223;-49
2023/12/01 10:08:39;;;;;;;401.47;144.73;;;;;;;;;;5024881;28;20204;-48
2023/12/01 10:11:18;;;;;;;401.77;143.53;;;;;;;;;;5027095;28;20211;-49
2023/12/01 10:13:45;;;;;;;393.83;143.70;;;;;;;;;;5014689;28;20223;-49
2023/12/01 10:16:11;;;;;;;383.43;147.07;;;;;;;;;;5015371;28;20361;-49
2023/12/01 10:18:37;;;;;;;402.90;147.50;;;;;;;;;;5019021;28;20224;-49
2023/12/01 10:21:03;;;;;;;390.50;145.63;;;;;;;;;;5009915;28;20517;-49
2023/12/01 10:23:32;;;;;;;383.77;139.67;;;;;;;;;;5021248;28;20661;-49
2023/12/01 10:25:58;;;;;;;395.43;143.27;;;;;;;;;;5020688;28;20697;-49
2023/12/01 10:28:27;;;;;;;386.13;140.07;;;;;;;;;;5014390;28;20225;-49
2023/12/01 10:30:59;;;;;;;399.97;147.77;;;;;;;;;;5019450;28;20247;-49
2023/12/01 10:33:28;;;;;;;400.70;147.50;;;;;;;;;;5024155;28;20208;-49
2023/12/01 10:36:07;;;;;;;389.37;143.33;;;;;;;;;;5008797;28;20631;-49
2023/12/01 10:38:34;;;;;;;409.43;150.03;;;;;;;;;;5016786;28;20184;-49
2023/12/01 10:41:00;;;;;;;427.80;156.03;;;;;;;;;;5015745;28;20228;-49
2023/12/01 10:43:29;;;;;;;403.90;151.83;;;;;;;;;;5017345;28;20698;-49
2023/12/01 10:45:57;;;;;;;408.93;148.70;;;;;;;;;;5018795;28;20354;-49
2023/12/01 10:48:24;;;;;;;400.03;145.67;;;;;;;;;;5019111;28;20228;-49
2023/12/01 10:50:52;;;;;;;410.90;147.27;;;;;;;;;;5017370;28;20249;-49
2023/12/01 10:53:19;;;;;;;414.57;151.53;;;;;;;;;;5027078;28;20188;-50
2023/12/01 10:55:46;;;;;;;383.33;143.30;;;;;;;;;;5021198;28;20248;-49
2023/12/01 10:58:15;;;;;;;384.23;141.03;;;;;;;;;;5018084;28;20240;-48
2023/12/01 11:00:42;;;;;;;371.67;135.67;;;;;;;;;;5022879;28;20222;-48
2023/12/01 11:03:09;;;;;;;404.07;146.30;;;;;;;;;;5026270;28;20616;-48
2023/12/01 11:05:36;;;;;;;400.20;145.63;;;;;;;;;;5006470;28;20630;-48
2023/12/01 11:08:14;;;;;;;396.30;142.27;;;;;;;;;;5015615;28;20196;-49
2023/12/01 11:11:04;;;;;;;375.90;139.37;;;;;;;;;;5011734;28;20220;-49
2023/12/01 11:13:48;;;;;;;395.70;143.93;;;;;;;;;;5000081;28;20700;-49
2023/12/01 11:16:14;;;;;;;394.90;149.37;;;;;;;;;;5008649;28;20223;-49
2023/12/01 11:18:44;;;;;;;399.87;149.87;;;;;;;;;;5013763;28;20532;-49
2023/12/01 11:21:10;;;;;;;378.83;142.53;;;;;;;;;;5011864;28;20220;-50
2023/12/01 11:23:36;;;;;;;392.90;148.73;;;;;;;;;;5017025;28;20179;-49
2023/12/01 11:26:05;;;;;;;391.77;143.60;;;;;;;;;;5022751;28;20169;-48
2023/12/01 11:31:13;;;;;;;390.97;146.40;;;;;;;;;;5021979;28;20699;-48
2023/12/01 11:33:39;;;;;;;403.40;146.07;;;;;;;;;;5023911;23;20236;-70
2023/12/01 11:36:21;;;;;;;406.53;154.50;;;;;;;;;;4996114;28;20223;-71
2023/12/01 11:41:41;;;;;;;463.63;176.27;;;;;;;;;;4998545;28;20212;-71
2023/12/01 11:44:11;;;;;;;450.87;171.97;;;;;;;;;;4977716;28;20184;-71
2023/12/01 11:46:40;;;;;;;380.23;135.43;;;;;;;;;;4977334;28;20221;-71
2023/12/01 11:49:06;;;;;;;550.77;224.27;;;;;;;;;;4989133;28;20217;-71
2023/12/01 11:51:33;;;;;;;410.93;153.33;;;;;;;;;;4993956;28;20252;-71
2023/12/01 11:54:00;;;;;;;402.33;148.17;;;;;;;;;;4979092;28;20718;-71
2023/12/01 11:56:26;;;;;;;435.87;163.90;;;;;;;;;;4996792;28;20260;-72
